Time;durP1;ratioP1;P1;durP2;ratioP2;P2;SDS_P1;SDS_P2;PMS_P1;PMS_P2;Temp;Humidity;BMP_temperature;BMP_pressure;BME280_temperature;BME280_humidity;BME280_pressure;Samples;Min_cycle;Max_cycle;Signal;HPM_P1;HPM_P2
2023/05/18 01:17:32;;;;;;;;;;;;;;;7.32;89.17;101060.99;1712705;82;25484;-64
2023/05/18 01:20:27;;;;;;;8.63;2.92;;;;;;;7.29;89.23;101067.19;1744214;82;27629;-65
2023/05/18 01:23:20;;;;;;;9.00;3.60;;;;;;;7.27;89.39;101065.83;1744312;82;25461;-65
2023/05/18 01:25:58;;;;;;;10.40;3.65;;;;;;;7.25;89.54;101071.50;1744413;81;25464;-65
2023/05/18 01:28:29;;;;;;;10.58;2.90;;;;;;;7.24;89.63;101069.08;1744120;81;25582;-65
2023/05/18 01:30:57;;;;;;;10.82;3.00;;;;;;;7.23;89.70;101061.52;1744293;82;25549;-65
2023/05/18 01:33:24;;;;;;;7.78;2.55;;;;;;;7.24;89.61;101058.31;1744272;82;28106;-65
2023/05/18 01:35:51;;;;;;;12.60;2.87;;;;;;;7.25;89.70;101065.29;1744198;81;25697;-64
2023/05/18 01:38:24;;;;;;;10.95;2.67;;;;;;;7.24;89.70;101066.38;1744228;82;25601;-64
2023/05/18 01:41:13;;;;;;;10.25;2.62;;;;;;;7.25;89.75;101068.81;1744236;82;25554;-64
2023/05/18 01:43:46;;;;;;;;;;;;;;;7.24;89.89;101068.53;1746886;82;25518;-65
2023/05/18 01:46:35;;;;;;;8.05;3.08;;;;;;;7.25;89.83;101076.05;1699786;84;27636;-65
2023/05/18 01:49:07;;;;;;;13.25;3.77;;;;;;;7.25;89.80;101076.05;1688340;85;25640;-65
2023/05/18 01:51:39;;;;;;;12.15;3.08;;;;;;;7.24;89.68;101078.49;1688294;85;25674;-66
2023/05/18 01:54:09;;;;;;;13.13;2.60;;;;;;;7.24;89.48;101082.53;1688326;85;25672;-67
2023/05/18 01:56:38;;;;;;;9.35;2.98;;;;;;;7.23;89.57;101085.73;1688417;85;25890;-67
2023/05/18 01:59:05;;;;;;;9.85;2.77;;;;;;;7.25;89.73;101082.78;1688488;85;27447;-65
2023/05/18 02:01:32;;;;;;;12.28;2.70;;;;;;;7.24;89.61;101083.88;1688315;85;25987;-65
2023/05/18 02:03:58;;;;;;;7.30;2.72;;;;;;;7.23;89.57;101079.01;1688386;85;25613;-65
2023/05/18 02:06:24;;;;;;;7.17;2.47;;;;;;;7.24;89.54;101081.19;1688345;85;25463;-65
2023/05/18 02:08:51;;;;;;;9.25;3.02;;;;;;;7.22;89.45;101088.17;1688409;85;25677;-65
2023/05/18 02:11:17;;;;;;;8.05;2.67;;;;;;;7.21;89.31;101083.05;1688354;85;27458;-65
2023/05/18 02:13:43;;;;;;;9.18;2.47;;;;;;;7.21;89.33;101083.05;1688330;85;25502;-65
2023/05/18 02:16:10;;;;;;;13.35;2.67;;;;;;;7.19;89.09;101086.02;1688397;85;25454;-65
2023/05/18 02:18:37;;;;;;;9.85;2.95;;;;;;;7.18;88.85;101083.58;1672305;85;25522;-65
2023/05/18 02:21:08;;;;;;;6.58;2.20;;;;;;;7.17;88.69;101087.34;1659134;86;25582;-65
2023/05/18 02:23:35;;;;;;;12.43;3.35;;;;;;;7.14;88.67;101083.31;1686378;83;29072;-65
2023/05/18 02:26:01;;;;;;;11.93;2.98;;;;;;;7.11;88.70;101086.53;1713322;83;25406;-65
2023/05/18 02:28:28;;;;;;;7.03;2.77;;;;;;;7.08;88.57;101086.54;1712302;83;25418;-66
2023/05/18 02:30:53;;;;;;;12.55;2.65;;;;;;;7.03;88.39;101089.22;1712223;83;25399;-65
2023/05/18 02:33:25;;;;;;;11.40;3.20;;;;;;;7.01;88.44;101094.58;1712343;83;32809;-65
2023/05/18 02:35:47;;;;;;;8.33;2.67;;;;;;;7.00;88.66;101098.33;1721535;83;27513;-65
2023/05/18 02:38:14;;;;;;;10.88;2.62;;;;;;;6.97;88.68;101097.53;1722240;83;25390;-66
2023/05/18 02:40:40;;;;;;;7.87;2.60;;;;;;;6.94;88.78;101100.20;1722249;83;25410;-65
2023/05/18 02:43:06;;;;;;;11.53;2.17;;;;;;;6.92;88.86;101099.13;1722316;83;25478;-65
2023/05/18 02:45:33;;;;;;;12.37;2.90;;;;;;;6.89;88.88;101101.53;1722305;83;25534;-65
2023/05/18 02:47:59;;;;;;;9.70;2.92;;;;;;;6.87;88.92;101101.00;1722325;83;27468;-65
2023/05/18 02:50:25;;;;;;;5.90;2.45;;;;;;;6.84;88.99;101097.48;1722138;83;25399;-65
2023/05/18 02:52:52;;;;;;;6.28;2.80;;;;;;;6.81;89.24;101104.73;1722264;83;25617;-65
2023/05/18 02:55:18;;;;;;;12.65;3.08;;;;;;;6.77;89.18;101099.07;1722223;83;34855;-65
2023/05/18 02:57:45;;;;;;;9.63;2.83;;;;;;;6.75;89.23;101095.05;1722272;83;25393;-65
2023/05/18 03:00:15;;;;;;;11.38;3.00;;;;;;;6.72;89.32;101097.20;1722211;83;29632;-66
2023/05/18 03:02:43;;;;;;;;;;;;;;;6.70;89.35;101096.62;1724720;83;25611;-66
2023/05/18 03:05:09;;;;;;;9.65;2.62;;;;;;;6.69;89.51;101101.75;1722256;83;25501;-66
2023/05/18 03:07:35;;;;;;;10.78;3.17;;;;;;;6.69;89.72;101113.02;1722357;83;25618;-66
2023/05/18 03:10:03;;;;;;;6.92;2.90;;;;;;;6.69;89.67;101115.19;1722448;83;25526;-66
2023/05/18 03:12:29;;;;;;;6.78;2.80;;;;;;;6.70;89.91;101119.48;1722392;83;27510;-65
2023/05/18 03:14:56;;;;;;;11.30;3.20;;;;;;;6.69;89.95;101114.36;1722329;83;32921;-65
2023/05/18 03:17:22;;;;;;;9.30;3.40;;;;;;;6.69;89.96;101115.19;1722379;83;25444;-65
2023/05/18 03:19:48;;;;;;;11.78;2.95;;;;;;;6.70;89.82;101120.02;1755765;81;25581;-66
2023/05/18 03:22:14;;;;;;;6.95;3.12;;;;;;;6.69;89.91;101124.60;1760156;81;25395;-66
2023/05/18 03:24:41;;;;;;;12.43;3.08;;;;;;;6.70;89.98;101121.37;1760127;81;27425;-66
2023/05/18 03:27:08;;;;;;;10.78;2.62;;;;;;;6.72;90.18;101120.56;1760077;81;25439;-66
2023/05/18 03:29:34;;;;;;;8.28;2.67;;;;;;;6.71;90.12;101116.27;1760083;81;25387;-66
2023/05/18 03:32:00;;;;;;;13.55;4.40;;;;;;;6.73;90.27;101120.30;1760057;81;25530;-65
2023/05/18 03:34:26;;;;;;;12.18;3.50;;;;;;;6.76;90.31;101127.56;1760140;81;25198;-65
2023/05/18 03:36:53;;;;;;;9.33;2.98;;;;;;;6.78;90.51;101128.14;1760060;81;27524;-66
2023/05/18 03:39:20;;;;;;;12.18;3.15;;;;;;;6.79;90.42;101130.53;1740988;81;25659;-66
2023/05/18 03:41:47;;;;;;;14.05;3.12;;;;;;;6.80;90.43;101128.13;1760095;81;25431;-66
2023/05/18 03:44:13;;;;;;;7.95;2.60;;;;;;;6.82;90.27;101139.97;1760019;81;25564;-65
2023/05/18 03:46:39;;;;;;;12.00;3.12;;;;;;;6.83;90.25;101135.68;1760099;81;25367;-65
2023/05/18 03:49:06;;;;;;;9.45;2.47;;;;;;;6.85;90.35;101138.91;1760108;81;27507;-65
2023/05/18 03:51:33;;;;;;;11.08;3.72;;;;;;;6.87;90.43;101142.13;1759987;81;25839;-65
2023/05/18 03:53:59;;;;;;;10.08;2.77;;;;;;;6.88;90.29;101142.42;1708517;84;25618;-65
2023/05/18 03:56:25;;;;;;;11.25;2.72;;;;;;;6.90;90.45;101148.34;1733537;82;25586;-64
2023/05/18 03:58:52;;;;;;;12.23;2.83;;;;;;;6.95;90.55;101144.87;1733594;82;25540;-65
2023/05/18 04:01:22;;;;;;;6.90;2.92;;;;;;;6.99;90.80;101148.64;1733587;82;27638;-67
2023/05/18 04:03:49;;;;;;;11.57;3.35;;;;;;;7.02;90.90;101148.11;1733394;82;25424;-66
2023/05/18 04:06:16;;;;;;;12.68;3.25;;;;;;;7.17;90.94;101171.58;1733745;82;25561;-66
2023/05/18 04:08:44;;;;;;;11.65;2.52;;;;;;;7.13;90.90;101148.14;1733730;82;25587;-66
2023/05/18 04:11:11;;;;;;;10.70;2.80;;;;;;;7.19;90.74;101153.83;1733678;82;25643;-65
2023/05/18 04:13:37;;;;;;;8.68;3.75;;;;;;;7.21;90.70;101157.85;1733494;82;27550;-65
2023/05/18 04:16:05;;;;;;;8.50;3.42;;;;;;;7.27;90.92;101164.05;1733428;82;25471;-65
2023/05/18 04:18:35;;;;;;;16.27;3.87;;;;;;;7.34;90.89;101163.80;1729306;82;25556;-66
2023/05/18 04:21:01;;;;;;;8.58;3.10;;;;;;;7.38;90.74;101165.70;1715749;83;25709;-66
2023/05/18 04:23:28;;;;;;;11.80;2.92;;;;;;;7.43;90.55;101172.44;1715631;83;25635;-66
2023/05/18 04:25:55;;;;;;;10.80;3.15;;;;;;;7.48;90.52;101169.76;1715611;82;27476;-65
2023/05/18 04:28:21;;;;;;;14.75;3.35;;;;;;;7.54;90.06;101175.95;1715580;83;25383;-66
2023/05/18 04:30:47;;;;;;;9.23;3.27;;;;;;;7.60;90.36;101172.75;1715636;83;25596;-65
2023/05/18 04:33:15;;;;;;;12.35;3.40;;;;;;;7.65;90.19;101180.83;1715588;83;25467;-65
2023/05/18 04:35:42;;;;;;;12.15;3.00;;;;;;;7.70;89.87;101177.34;1715680;83;25625;-66
2023/05/18 04:38:09;;;;;;;12.80;3.40;;;;;;;7.77;90.33;101181.92;1715615;82;26633;-66
2023/05/18 04:40:36;;;;;;;10.93;2.90;;;;;;;7.85;90.03;101184.09;1715466;83;25463;-65
2023/05/18 04:43:04;;;;;;;8.50;2.90;;;;;;;7.92;89.87;101185.17;1715627;83;25587;-65
2023/05/18 04:45:32;;;;;;;8.68;3.02;;;;;;;7.97;89.77;101181.94;1715611;83;26345;-66
2023/05/18 04:48:00;;;;;;;13.85;3.45;;;;;;;8.04;89.03;101187.85;1715723;83;25617;-65
2023/05/18 04:50:26;;;;;;;6.72;2.60;;;;;;;8.07;88.62;101185.17;1715714;83;27479;-65
2023/05/18 04:52:56;;;;;;;11.40;2.80;;;;;;;8.14;88.77;101182.18;1715491;83;25373;-65
2023/05/18 04:55:26;;;;;;;14.37;3.60;;;;;;;8.20;88.65;101187.84;1715649;82;25461;-65
2023/05/18 04:57:56;;;;;;;11.18;3.35;;;;;;;8.22;87.68;101193.77;1715622;83;25578;-65
2023/05/18 05:00:27;;;;;;;10.48;3.15;;;;;;;8.27;87.77;101192.41;1715652;83;25453;-65
2023/05/18 05:02:55;;;;;;;10.78;3.67;;;;;;;8.32;87.87;101192.95;1715658;83;28092;-65
2023/05/18 05:05:23;;;;;;;12.70;3.98;;;;;;;8.38;87.50;101193.23;1715554;83;25557;-65
2023/05/18 05:07:51;;;;;;;12.30;3.00;;;;;;;8.45;87.76;101197.03;1715593;82;25413;-66
2023/05/18 05:10:19;;;;;;;10.43;2.75;;;;;;;8.50;87.45;101196.47;1715553;83;26221;-64
2023/05/18 05:12:48;;;;;;;11.50;2.50;;;;;;;8.55;87.21;101199.16;1715625;83;25579;-66
2023/05/18 05:15:14;;;;;;;9.73;2.90;;;;;;;8.62;86.95;101196.72;1715548;83;27550;-66
2023/05/18 05:17:40;;;;;;;8.90;2.83;;;;;;;8.66;86.80;101208.02;1715480;83;27465;-66
2023/05/18 05:20:09;;;;;;;8.28;2.98;;;;;;;8.73;86.94;101203.14;1728690;82;25463;-66
2023/05/18 05:22:35;;;;;;;9.43;3.17;;;;;;;8.76;86.15;101210.69;1733901;82;26279;-66
2023/05/18 05:25:01;;;;;;;13.80;2.35;;;;;;;8.88;85.90;101222.52;1733722;82;25657;-66
2023/05/18 05:27:27;;;;;;;10.13;2.55;;;;;;;8.82;86.19;101199.36;1733702;82;27444;-65
2023/05/18 05:29:53;;;;;;;9.70;2.37;;;;;;;8.90;86.64;101204.72;1733528;82;25516;-66
2023/05/18 05:32:19;;;;;;;9.75;2.30;;;;;;;8.97;86.16;101207.92;1733686;82;25472;-66
2023/05/18 05:34:49;;;;;;;9.55;2.50;;;;;;;9.02;85.93;101203.86;1733650;82;26147;-65
2023/05/18 05:37:14;;;;;;;10.32;3.00;;;;;;;9.09;85.52;101215.70;1733513;81;25576;-64
2023/05/18 05:39:40;;;;;;;8.83;2.30;;;;;;;9.13;85.59;101216.23;1733692;82;27476;-64
2023/05/18 05:42:07;;;;;;;7.83;2.40;;;;;;;9.23;85.93;101218.61;1733598;82;25777;-65
2023/05/18 05:44:35;;;;;;;11.97;2.27;;;;;;;9.32;85.95;101217.77;1733698;82;25463;-65
2023/05/18 05:47:01;;;;;;;9.50;2.75;;;;;;;9.41;85.49;101226.64;1733664;82;25649;-66
2023/05/18 05:49:28;;;;;;;8.65;2.47;;;;;;;9.49;85.56;101221.45;1733674;82;25604;-65
2023/05/18 05:51:54;;;;;;;11.20;3.02;;;;;;;9.57;85.11;101226.00;1733675;82;27444;-64
2023/05/18 05:54:20;;;;;;;5.50;1.87;;;;;;;9.65;84.98;101230.81;1733669;82;25451;-64
2023/05/18 05:56:46;;;;;;;6.00;2.10;;;;;;;9.72;84.54;101226.73;1733766;82;25389;-64
2023/05/18 05:59:12;;;;;;;9.40;2.60;;;;;;;9.79;83.91;101225.59;1733638;82;25636;-64
2023/05/18 06:01:39;;;;;;;9.50;2.70;;;;;;;9.83;83.44;101229.37;1733628;82;25373;-64
2023/05/18 06:04:09;;;;;;;7.72;2.58;;;;;;;9.85;83.09;101229.34;1733657;82;27463;-64
2023/05/18 06:06:33;;;;;;;6.37;2.45;;;;;;;9.88;82.64;101230.68;1733093;81;25360;-64
2023/05/18 06:08:59;;;;;;;9.30;2.33;;;;;;;9.90;82.58;101233.35;1733662;82;25538;-65
2023/05/18 06:11:26;;;;;;;11.22;2.42;;;;;;;9.91;82.05;101230.92;1733594;82;25617;-64
2023/05/18 06:13:52;;;;;;;10.15;3.27;;;;;;;9.94;82.26;101240.91;1733719;82;25645;-65
2023/05/18 06:16:18;;;;;;;7.72;2.22;;;;;;;10.01;81.98;101246.79;1733655;82;27596;-66
2023/05/18 06:18:45;;;;;;;5.10;2.12;;;;;;;10.05;81.64;101247.86;1732992;82;25649;-66
2023/05/18 06:21:11;;;;;;;5.97;1.95;;;;;;;10.05;81.33;101235.14;1715521;83;25630;-66
2023/05/18 06:23:37;;;;;;;7.35;2.10;;;;;;;10.10;81.11;101243.21;1715557;83;25525;-65
2023/05/18 06:26:04;;;;;;;4.03;1.67;;;;;;;10.15;81.00;101234.78;1715607;83;25483;-65
2023/05/18 06:28:30;;;;;;;4.22;1.60;;;;;;;10.21;81.25;101238.52;1715645;83;27564;-66
2023/05/18 06:30:58;;;;;;;5.40;1.47;;;;;;;10.28;80.88;101242.25;1715402;83;25617;-65
2023/05/18 06:33:25;;;;;;;4.50;1.62;;;;;;;10.34;80.85;101243.06;1715544;83;25562;-65
2023/05/18 06:35:51;;;;;;;6.83;2.10;;;;;;;10.39;80.11;101240.31;1715551;83;25625;-65
2023/05/18 06:38:18;;;;;;;6.90;1.62;;;;;;;10.46;80.57;101247.55;1715577;82;25549;-65
2023/05/18 06:40:44;;;;;;;8.80;1.95;;;;;;;10.52;79.90;101245.59;1715290;83;29034;-65
2023/05/18 06:43:10;;;;;;;5.92;1.45;;;;;;;10.58;79.61;101247.17;1715641;83;25402;-65
2023/05/18 06:45:37;;;;;;;5.05;1.50;;;;;;;10.60;79.23;101249.03;1715699;83;25376;-65
2023/05/18 06:48:05;;;;;;;8.10;1.50;;;;;;;10.64;79.08;101246.84;1715646;83;25643;-65
2023/05/18 06:50:31;;;;;;;4.22;1.50;;;;;;;10.71;78.75;101252.44;1715743;83;25416;-65
2023/05/18 06:52:57;;;;;;;3.02;1.42;;;;;;;10.75;78.88;101257.00;1715708;83;27430;-65
2023/05/18 06:55:24;;;;;;;20.90;3.45;;;;;;;10.82;78.78;101260.16;1715559;83;27392;-65
2023/05/18 06:57:51;;;;;;;2.60;1.77;;;;;;;10.87;77.73;101258.52;1715615;83;25366;-65
2023/05/18 07:00:20;;;;;;;3.37;1.85;;;;;;;10.87;76.97;101258.52;1715595;83;25634;-65
2023/05/18 07:02:46;;;;;;;8.00;4.20;;;;;;;10.88;76.95;101259.59;1715721;82;25460;-65
2023/05/18 07:05:13;;;;;;;8.33;2.80;;;;;;;10.91;76.91;101260.34;1715661;83;27462;-65
2023/05/18 07:07:40;;;;;;;9.40;2.87;;;;;;;10.99;76.99;101262.98;1715559;83;25392;-65
2023/05/18 07:10:09;;;;;;;11.20;2.40;;;;;;;11.05;76.60;101260.48;1715792;83;25387;-66
2023/05/18 07:12:35;;;;;;;5.42;2.00;;;;;;;11.12;76.34;101268.27;1715616;83;25469;-66
2023/05/18 07:15:03;;;;;;;4.95;2.15;;;;;;;11.20;76.17;101264.89;1715704;83;25476;-67
2023/05/18 07:17:30;;;;;;;4.58;1.47;;;;;;;11.23;75.76;101270.29;1691804;83;27970;-64
2023/05/18 07:19:56;;;;;;;8.63;2.17;;;;;;;11.32;75.98;101268.02;1722312;82;25432;-66
2023/05/18 07:22:22;;;;;;;4.35;1.35;;;;;;;11.45;75.98;101267.04;1733776;82;25561;-67
2023/05/18 07:24:48;;;;;;;2.50;1.22;;;;;;;11.55;75.69;101266.91;1733808;82;25565;-66
2023/05/18 07:27:15;;;;;;;4.12;1.50;;;;;;;11.65;74.80;101271.39;1733791;82;25431;-66
2023/05/18 07:29:41;;;;;;;2.20;1.05;;;;;;;11.71;74.83;101272.38;1733823;82;27508;-65
2023/05/18 07:32:07;;;;;;;4.35;1.20;;;;;;;11.81;74.31;101274.13;1733742;82;25440;-65
2023/05/18 07:34:34;;;;;;;5.47;1.20;;;;;;;11.86;73.73;101280.82;1733753;82;25539;-65
2023/05/18 07:37:00;;;;;;;4.17;1.32;;;;;;;11.89;73.12;101276.17;1702778;82;26160;-65
2023/05/18 07:39:28;;;;;;;4.30;1.30;;;;;;;11.94;72.70;101282.91;1733816;82;25383;-65
2023/05/18 07:41:55;;;;;;;2.60;1.60;;;;;;;12.00;73.22;101276.85;1733711;82;29597;-67
2023/05/18 07:44:21;;;;;;;3.72;1.05;;;;;;;12.11;72.84;101287.02;1733729;82;25581;-66
2023/05/18 07:46:47;;;;;;;2.75;1.10;;;;;;;12.18;72.33;101286.64;1733770;82;25567;-66
2023/05/18 07:49:13;;;;;;;4.42;1.35;;;;;;;12.22;71.66;101283.02;1733785;82;25525;-66
2023/05/18 07:51:41;;;;;;;3.77;1.00;;;;;;;12.27;71.95;101276.72;1733823;82;25589;-66
2023/05/18 07:54:08;;;;;;;2.62;1.10;;;;;;;12.39;71.71;101288.46;1733900;81;27437;-66
2023/05/18 07:56:34;;;;;;;4.90;1.25;;;;;;;12.46;71.71;101292.95;1733679;82;25427;-66
2023/05/18 07:59:00;;;;;;;4.67;1.42;;;;;;;12.55;71.69;101294.42;1702733;82;25432;-65
2023/05/18 08:01:29;;;;;;;3.92;1.35;;;;;;;12.60;71.52;101291.09;1733807;82;25636;-66
2023/05/18 08:03:55;;;;;;;5.40;1.47;;;;;;;12.71;71.21;101292.51;1733751;82;25543;-66
2023/05/18 08:06:22;;;;;;;2.77;0.93;;;;;;;12.77;70.31;101298.67;1733784;82;27476;-66
2023/05/18 08:08:49;;;;;;;6.03;1.15;;;;;;;12.87;70.71;101302.56;1733643;82;25389;-66
2023/05/18 08:11:16;;;;;;;3.08;1.10;;;;;;;12.98;70.50;101305.88;1733800;82;25565;-67
2023/05/18 08:13:43;;;;;;;4.83;1.17;;;;;;;13.08;69.97;101309.76;1733707;82;25769;-66
2023/05/18 08:16:09;;;;;;;3.72;1.22;;;;;;;13.15;69.24;101303.13;1733517;82;25588;-66
2023/05/18 08:18:35;;;;;;;4.10;1.10;;;;;;;13.20;69.18;101313.90;1733750;82;27528;-66
2023/05/18 08:21:03;;;;;;;4.20;1.10;;;;;;;13.23;68.99;101316.02;1728235;82;25565;-65
2023/05/18 08:23:29;;;;;;;1.85;1.15;;;;;;;13.22;68.73;101302.97;1725935;83;25602;-65
2023/05/18 08:25:58;;;;;;;4.05;1.25;;;;;;;13.31;68.51;101298.98;1725927;83;25481;-65
2023/05/18 08:28:24;;;;;;;5.90;1.20;;;;;;;13.39;67.99;101309.75;1725842;82;25630;-65
2023/05/18 08:30:51;;;;;;;2.10;0.75;;;;;;;13.40;67.54;101307.26;1725963;83;27544;-66
2023/05/18 08:33:17;;;;;;;5.30;1.77;;;;;;;13.42;67.20;101315.94;1725663;82;26043;-65
2023/05/18 08:35:43;;;;;;;2.25;0.98;;;;;;;13.44;67.60;101311.80;1725940;83;25545;-66
2023/05/18 08:38:09;;;;;;;4.87;1.42;;;;;;;13.51;66.84;101317.39;1725885;83;25497;-66
2023/05/18 08:40:42;;;;;;;2.65;1.40;;;;;;;13.49;66.75;101313.61;1725914;83;25617;-66
2023/05/18 08:43:21;;;;;;;11.05;2.08;;;;;;;13.54;66.90;101312.71;1725960;83;27432;-66
2023/05/18 08:45:56;;;;;;;4.53;2.17;;;;;;;13.65;67.04;101319.52;1725458;83;25653;-66
2023/05/18 08:48:25;;;;;;;5.87;1.98;;;;;;;13.74;66.49;101311.45;1720228;81;25443;-66
2023/05/18 08:50:55;;;;;;;6.08;1.90;;;;;;;13.79;66.87;101318.13;1726071;83;25644;-66
2023/05/18 08:53:24;;;;;;;4.08;1.40;;;;;;;13.86;66.55;101316.36;1726019;83;25447;-66
2023/05/18 08:55:54;;;;;;;;;;;;;;;13.99;66.85;101308.16;1728281;83;27813;-66
2023/05/18 08:58:24;;;;;;;;;;;;;;;14.12;66.35;101307.08;1728449;83;25936;-66
2023/05/18 09:00:53;;;;;;;3.47;0.98;;;;;;;14.24;65.86;101310.61;1724801;81;25650;-66
2023/05/18 09:03:22;;;;;;;1.10;1.00;;;;;;;14.32;65.88;101305.77;1725797;81;26126;-66
2023/05/18 09:05:51;;;;;;;3.30;1.45;;;;;;;14.37;65.24;101308.39;1726062;83;25455;-66
2023/05/18 09:08:19;;;;;;;4.10;0.88;;;;;;;14.48;64.92;101307.57;1726082;83;28105;-66
2023/05/18 09:10:48;;;;;;;3.85;0.90;;;;;;;14.54;64.99;101304.41;1725848;83;25372;-66
2023/05/18 09:13:19;;;;;;;2.35;0.90;;;;;;;14.69;65.29;101310.59;1693420;83;25486;-66
2023/05/18 09:15:46;;;;;;;2.75;1.00;;;;;;;14.84;65.53;101313.48;1725889;83;25562;-66
2023/05/18 09:18:12;;;;;;;4.65;1.30;;;;;;;14.97;64.72;101313.16;1725939;83;25600;-66
2023/05/18 09:20:39;;;;;;;2.77;1.25;;;;;;;15.06;64.20;101313.99;1728836;82;27531;-66
2023/05/18 09:23:07;;;;;;;5.20;1.30;;;;;;;15.17;63.70;101309.88;1733713;82;25593;-65
2023/05/18 09:25:35;;;;;;;5.47;0.90;;;;;;;15.29;63.88;101308.71;1733726;82;25467;-67
2023/05/18 09:28:03;;;;;;;5.30;1.27;;;;;;;15.42;62.92;101313.78;1733379;82;25575;-67
2023/05/18 09:30:30;;;;;;;3.75;1.00;;;;;;;15.47;62.43;101308.18;1733667;81;25617;-66
2023/05/18 09:32:57;;;;;;;6.15;2.65;;;;;;;15.52;62.11;101312.69;1702146;82;27347;-66
2023/05/18 09:35:24;;;;;;;6.22;2.20;;;;;;;15.58;62.21;101310.07;1702665;82;25576;-66
2023/05/18 09:37:52;;;;;;;4.05;1.57;;;;;;;15.64;61.33;101314.23;1733697;82;25567;-66
2023/05/18 09:40:19;;;;;;;5.05;1.00;;;;;;;15.63;61.51;101312.64;1733673;82;25631;-66
2023/05/18 09:42:47;;;;;;;2.70;1.07;;;;;;;15.66;61.11;101311.19;1733711;82;25657;-66
2023/05/18 09:45:24;;;;;;;1.80;0.80;;;;;;;15.63;60.78;101309.09;1733749;82;27549;-66
2023/05/18 09:47:52;;;;;;;4.15;1.20;;;;;;;15.65;60.40;101308.23;1733467;82;26086;-66
2023/05/18 09:50:20;;;;;;;2.70;1.02;;;;;;;15.66;60.36;101320.73;1733696;81;25651;-65
2023/05/18 09:52:51;;;;;;;3.77;1.10;;;;;;;15.74;60.73;101313.70;1702604;82;25550;-67
2023/05/18 09:55:17;;;;;;;1.65;1.10;;;;;;;15.86;60.71;101314.69;1732594;82;25407;-67
2023/05/18 09:57:47;;;;;;;8.00;1.22;;;;;;;15.89;59.54;101318.72;1733675;82;28095;-67
2023/05/18 10:00:15;;;;;;;3.42;1.20;;;;;;;15.86;59.92;101317.98;1733600;81;25590;-67
2023/05/18 10:02:50;;;;;;;4.72;1.35;;;;;;;15.94;60.15;101317.77;1702946;82;25602;-66
2023/05/18 10:05:23;;;;;;;4.17;0.80;;;;;;;16.05;59.72;101323.13;1733558;82;25624;-66
2023/05/18 10:07:56;;;;;;;5.97;1.17;;;;;;;16.14;59.49;101310.30;1733701;82;25397;-67
2023/05/18 10:10:25;;;;;;;4.12;1.07;;;;;;;16.13;59.00;101320.17;1733717;82;27812;-66
2023/05/18 10:12:53;;;;;;;;;;;;;;;16.20;59.09;101315.03;1736155;82;25653;-67
2023/05/18 10:15:22;;;;;;;3.55;1.00;;;;;;;16.35;58.51;101315.10;1733700;82;25585;-67
2023/05/18 10:17:53;;;;;;;2.98;1.10;;;;;;;16.46;59.08;101310.09;1733768;82;25552;-67
2023/05/18 10:20:23;;;;;;;2.12;0.78;;;;;;;16.59;58.88;101311.84;1731148;82;25554;-66
2023/05/18 10:22:50;;;;;;;4.55;1.07;;;;;;;16.68;58.11;101313.98;1715547;83;28127;-67
2023/05/18 10:25:20;;;;;;;3.25;1.10;;;;;;;16.78;58.19;101310.89;1715459;83;25585;-68
2023/05/18 10:27:51;;;;;;;3.95;1.22;;;;;;;16.89;57.69;101308.66;1715570;83;25598;-66
2023/05/18 10:30:20;;;;;;;7.50;1.77;;;;;;;17.05;58.30;101315.74;1715394;83;25625;-67
2023/05/18 10:32:47;;;;;;;6.12;1.07;;;;;;;17.24;57.71;101310.44;1715680;83;25449;-65
2023/05/18 10:35:15;;;;;;;2.40;1.20;;;;;;;17.41;56.90;101317.17;1715555;83;28051;-66
2023/05/18 10:37:49;;;;;;;4.00;1.67;;;;;;;17.51;56.64;101312.69;1691106;83;25577;-64
2023/05/18 10:40:17;;;;;;;3.27;1.00;;;;;;;17.60;56.13;101307.16;1715571;83;25406;-63
2023/05/18 10:42:45;;;;;;;3.80;0.90;;;;;;;17.62;55.68;101306.83;1715485;83;26236;-63
2023/05/18 10:45:12;;;;;;;2.62;0.82;;;;;;;17.66;55.13;101308.58;1715800;83;25639;-63
2023/05/18 10:47:41;;;;;;;6.65;1.10;;;;;;;17.66;54.85;101307.20;1715637;83;27507;-64
2023/05/18 10:50:10;;;;;;;2.55;0.98;;;;;;;17.79;55.14;101308.64;1715678;83;25612;-65
2023/05/18 10:52:38;;;;;;;2.65;1.12;;;;;;;17.88;55.27;101314.90;1715738;83;25460;-66
2023/05/18 10:55:07;;;;;;;1.95;1.00;;;;;;;17.79;54.11;101308.06;1715589;83;25467;-67
2023/05/18 10:57:53;;;;;;;3.40;1.05;;;;;;;17.89;54.05;101312.38;1715772;83;25412;-66
2023/05/18 11:00:21;;;;;;;2.72;0.95;;;;;;;18.03;54.35;101306.62;1715571;83;27954;-67
2023/05/18 11:02:50;;;;;;;2.70;0.90;;;;;;;18.11;54.08;101309.29;1715425;83;25587;-68
2023/05/18 11:05:25;;;;;;;3.30;0.70;;;;;;;18.25;54.06;101304.92;1715574;83;25615;-67
2023/05/18 11:08:02;;;;;;;2.83;0.90;;;;;;;18.42;53.78;101295.73;1715535;83;25611;-67
2023/05/18 11:10:47;;;;;;;3.12;1.02;;;;;;;18.55;53.50;101303.41;1715574;83;25462;-67
2023/05/18 11:13:15;;;;;;;1.85;0.85;;;;;;;18.66;53.12;101298.28;1715648;83;28721;-69
2023/05/18 11:15:57;;;;;;;3.87;1.25;;;;;;;18.72;52.47;101298.30;1715503;83;25180;-68
2023/05/18 11:18:44;;;;;;;3.17;1.70;;;;;;;18.69;52.26;101298.98;1715582;83;25430;-65
2023/05/18 11:21:40;;;;;;;3.45;1.20;;;;;;;18.67;51.66;101296.58;1717869;81;25645;-67
2023/05/18 11:24:29;;;;;;;3.92;1.10;;;;;;;18.61;51.14;101297.13;1723271;81;25404;-67
2023/05/18 11:27:14;;;;;;;3.47;0.80;;;;;;;18.67;51.55;101295.78;1725865;83;27474;-67
2023/05/18 11:29:45;;;;;;;2.55;1.00;;;;;;;18.77;51.39;101299.45;1725936;83;25444;-67
2023/05/18 11:32:26;;;;;;;2.50;1.00;;;;;;;18.88;50.78;101297.09;1725952;82;25546;-67
2023/05/18 11:34:53;;;;;;;4.00;1.57;;;;;;;18.95;50.63;101295.98;1725978;83;26016;-66
2023/05/18 11:37:41;;;;;;;1.60;0.90;;;;;;;19.10;50.55;101282.72;1726005;83;25424;-67
2023/05/18 11:40:12;;;;;;;5.92;0.80;;;;;;;19.19;50.74;101291.65;1715226;83;27618;-67
2023/05/18 11:42:39;;;;;;;3.37;0.88;;;;;;;19.26;49.75;101290.50;1725846;83;25959;-67
2023/05/18 11:45:11;;;;;;;2.72;1.00;;;;;;;19.35;49.49;101287.63;1725291;83;25440;-67
2023/05/18 11:47:39;;;;;;;3.10;0.88;;;;;;;19.35;49.28;101284.89;1725312;82;25456;-67
2023/05/18 11:50:10;;;;;;;2.52;0.70;;;;;;;19.44;49.60;101290.24;1726002;83;25398;-67
2023/05/18 11:52:48;;;;;;;4.92;0.75;;;;;;;19.56;48.92;101287.47;1725973;83;27596;-67
2023/05/18 11:55:19;;;;;;;0.78;0.50;;;;;;;19.62;48.73;101287.47;1725874;83;25620;-68
2023/05/18 11:57:51;;;;;;;1.47;0.70;;;;;;;19.57;48.09;101280.84;1725890;83;25623;-56
2023/05/18 12:00:20;;;;;;;1.55;0.50;;;;;;;19.53;47.47;101285.41;1725878;83;25609;-62
2023/05/18 12:02:48;;;;;;;0.90;0.62;;;;;;;19.50;47.64;101291.62;1726017;83;25390;-57
2023/05/18 12:05:16;;;;;;;2.77;0.95;;;;;;;19.54;47.36;101288.39;1725910;83;27534;-58
2023/05/18 12:07:44;;;;;;;4.35;0.80;;;;;;;19.55;47.24;101288.05;1725806;83;25557;-59
2023/05/18 12:10:15;;;;;;;3.42;0.93;;;;;;;19.58;47.44;101296.16;1726146;83;25566;-58
2023/05/18 12:12:48;;;;;;;1.72;0.90;;;;;;;19.62;47.18;101292.96;1725996;83;25586;-58
2023/05/18 12:15:14;;;;;;;1.35;0.70;;;;;;;19.71;47.18;101285.96;1726011;83;25385;-57
2023/05/18 12:17:47;;;;;;;2.47;0.80;;;;;;;19.86;47.20;101289.38;1726057;83;27603;-57
2023/05/18 12:20:27;;;;;;;3.45;0.60;;;;;;;19.99;47.14;101297.56;1725864;83;25392;-57
2023/05/18 12:22:56;;;;;;;1.40;0.70;;;;;;;20.09;46.36;101297.06;1716400;82;25606;-59
2023/05/18 12:25:25;;;;;;;3.77;1.70;;;;;;;20.07;45.63;101284.27;1715550;83;25613;-66
2023/05/18 12:27:54;;;;;;;6.95;6.12;;;;;;;19.99;45.09;101292.89;1715840;83;25287;-70
2023/05/18 12:30:25;;;;;;;2.33;1.72;;;;;;;20.01;45.32;101291.17;1715753;83;27701;-70
2023/05/18 12:32:56;;;;;;;2.87;1.30;;;;;;;20.03;45.03;101288.29;1715282;81;25538;-67
2023/05/18 12:35:30;;;;;;;2.92;0.60;;;;;;;20.05;44.74;101290.69;1715529;82;25529;-66
2023/05/18 12:38:01;;;;;;;43.17;37.70;;;;;;;20.03;44.90;101286.92;1715574;83;26296;-70
2023/05/18 12:40:43;;;;;;;8.68;7.55;;;;;;;20.06;44.62;101289.55;1715721;83;25455;-70
2023/05/18 12:43:05;;;;;;;4.85;1.00;;;;;;;20.00;44.55;101284.86;1714549;81;27697;-68
2023/05/18 12:45:32;;;;;;;1.17;0.85;;;;;;;19.89;44.64;101290.06;1715488;83;25722;-68
2023/05/18 12:48:11;;;;;;;0.72;0.72;;;;;;;19.78;44.50;101290.31;1715618;83;25639;-70
2023/05/18 12:50:50;;;;;;;6.75;5.35;;;;;;;19.66;44.71;101287.58;1715824;83;25477;-69
2023/05/18 12:53:19;;;;;;;8.38;6.75;;;;;;;19.56;44.33;101280.06;1715854;83;32474;-66